sensor_id;sensor_type;location;lat;lon;timestamp;P1;durP1;ratioP1;P2;durP2;ratioP2
43363;SDS011;40636;52.424;-1.948;2023-05-10T00:00:00;6.88;;;3.55;;
43363;SDS011;40636;52.424;-1.948;2023-05-10T00:02:27;7.30;;;4.20;;
43363;SDS011;40636;52.424;-1.948;2023-05-10T00:04:54;6.72;;;3.95;;
43363;SDS011;40636;52.424;-1.948;2023-05-10T00:07:21;6.88;;;3.95;;
43363;SDS011;40636;52.424;-1.948;2023-05-10T00:09:47;5.03;;;2.83;;
43363;SDS011;40636;52.424;-1.948;2023-05-10T00:12:14;5.93;;;3.33;;
43363;SDS011;40636;52.424;-1.948;2023-05-10T00:14:41;6.97;;;3.45;;
43363;SDS011;40636;52.424;-1.948;2023-05-10T00:17:07;7.00;;;3.50;;
43363;SDS011;40636;52.424;-1.948;2023-05-10T00:19:34;9.00;;;3.40;;
43363;SDS011;40636;52.424;-1.948;2023-05-10T00:22:01;6.88;;;3.38;;
43363;SDS011;40636;52.424;-1.948;2023-05-10T00:24:27;9.90;;;3.90;;
43363;SDS011;40636;52.424;-1.948;2023-05-10T00:26:54;5.45;;;3.10;;
43363;SDS011;40636;52.424;-1.948;2023-05-10T00:29:21;8.10;;;3.45;;
43363;SDS011;40636;52.424;-1.948;2023-05-10T00:31:47;4.90;;;2.95;;
43363;SDS011;40636;52.424;-1.948;2023-05-10T00:34:14;6.55;;;3.08;;
43363;SDS011;40636;52.424;-1.948;2023-05-10T00:36:41;4.97;;;3.03;;
43363;SDS011;40636;52.424;-1.948;2023-05-10T00:39:07;7.85;;;3.85;;
43363;SDS011;40636;52.424;-1.948;2023-05-10T00:41:34;5.53;;;2.67;;
43363;SDS011;40636;52.424;-1.948;2023-05-10T00:44:01;5.93;;;3.00;;
43363;SDS011;40636;52.424;-1.948;2023-05-10T00:46:28;4.15;;;2.92;;
43363;SDS011;40636;52.424;-1.948;2023-05-10T00:48:55;5.28;;;2.97;;
43363;SDS011;40636;52.424;-1.948;2023-05-10T00:51:22;4.90;;;3.20;;
43363;SDS011;40636;52.424;-1.948;2023-05-10T00:53:49;5.82;;;2.60;;
43363;SDS011;40636;52.424;-1.948;2023-05-10T00:56:17;5.20;;;2.67;;
43363;SDS011;40636;52.424;-1.948;2023-05-10T00:58:44;8.32;;;2.83;;
43363;SDS011;40636;52.424;-1.948;2023-05-10T01:01:11;4.40;;;2.72;;
43363;SDS011;40636;52.424;-1.948;2023-05-10T01:03:38;15.23;;;3.60;;
43363;SDS011;40636;52.424;-1.948;2023-05-10T01:06:06;5.75;;;2.40;;
43363;SDS011;40636;52.424;-1.948;2023-05-10T01:08:33;8.48;;;2.78;;
43363;SDS011;40636;52.424;-1.948;2023-05-10T01:11:00;5.05;;;2.38;;
43363;SDS011;40636;52.424;-1.948;2023-05-10T01:16:01;3.70;;;2.67;;
43363;SDS011;40636;52.424;-1.948;2023-05-10T01:18:29;7.13;;;2.38;;
43363;SDS011;40636;52.424;-1.948;2023-05-10T01:21:04;5.25;;;3.22;;
43363;SDS011;40636;52.424;-1.948;2023-05-10T01:34:22;3.85;;;2.45;;
43363;SDS011;40636;52.424;-1.948;2023-05-10T01:36:55;6.38;;;2.55;;
43363;SDS011;40636;52.424;-1.948;2023-05-10T01:42:23;4.05;;;1.90;;
43363;SDS011;40636;52.424;-1.948;2023-05-10T01:44:57;3.72;;;2.58;;
43363;SDS011;40636;52.424;-1.948;2023-05-10T01:47:42;5.60;;;2.00;;
43363;SDS011;40636;52.424;-1.948;2023-05-10T01:50:24;4.88;;;2.33;;
43363;SDS011;40636;52.424;-1.948;2023-05-10T01:52:57;3.30;;;2.28;;
43363;SDS011;40636;52.424;-1.948;2023-05-10T01:55:29;9.65;;;3.25;;
43363;SDS011;40636;52.424;-1.948;2023-05-10T01:58:06;5.35;;;2.38;;
43363;SDS011;40636;52.424;-1.948;2023-05-10T02:00:39;4.47;;;1.80;;
43363;SDS011;40636;52.424;-1.948;2023-05-10T02:03:09;4.82;;;2.70;;
43363;SDS011;40636;52.424;-1.948;2023-05-10T02:05:38;7.65;;;2.70;;
43363;SDS011;40636;52.424;-1.948;2023-05-10T02:08:06;6.82;;;2.58;;
43363;SDS011;40636;52.424;-1.948;2023-05-10T02:10:34;4.95;;;2.85;;
43363;SDS011;40636;52.424;-1.948;2023-05-10T02:13:02;3.72;;;2.40;;
43363;SDS011;40636;52.424;-1.948;2023-05-10T02:15:30;3.40;;;2.28;;
43363;SDS011;40636;52.424;-1.948;2023-05-10T02:17:58;5.82;;;3.13;;
43363;SDS011;40636;52.424;-1.948;2023-05-10T02:20:26;4.97;;;2.08;;
43363;SDS011;40636;52.424;-1.948;2023-05-10T02:22:54;6.20;;;2.50;;
43363;SDS011;40636;52.424;-1.948;2023-05-10T02:25:22;4.25;;;2.28;;
43363;SDS011;40636;52.424;-1.948;2023-05-10T02:27:51;4.22;;;2.13;;
43363;SDS011;40636;52.424;-1.948;2023-05-10T02:30:21;2.42;;;2.03;;
43363;SDS011;40636;52.424;-1.948;2023-05-10T02:32:49;6.95;;;2.58;;
43363;SDS011;40636;52.424;-1.948;2023-05-10T02:35:17;6.22;;;1.88;;
43363;SDS011;40636;52.424;-1.948;2023-05-10T02:37:45;4.75;;;3.00;;
43363;SDS011;40636;52.424;-1.948;2023-05-10T02:40:14;3.55;;;1.98;;
43363;SDS011;40636;52.424;-1.948;2023-05-10T02:42:44;3.25;;;2.00;;
43363;SDS011;40636;52.424;-1.948;2023-05-10T02:45:14;2.80;;;1.95;;
43363;SDS011;40636;52.424;-1.948;2023-05-10T02:47:56;4.20;;;2.13;;
43363;SDS011;40636;52.424;-1.948;2023-05-10T02:50:25;3.65;;;2.20;;
43363;SDS011;40636;52.424;-1.948;2023-05-10T02:52:56;5.78;;;1.88;;
43363;SDS011;40636;52.424;-1.948;2023-05-10T02:55:31;4.55;;;2.05;;
43363;SDS011;40636;52.424;-1.948;2023-05-10T02:58:01;6.88;;;2.38;;
43363;SDS011;40636;52.424;-1.948;2023-05-10T03:00:29;5.05;;;2.45;;
43363;SDS011;40636;52.424;-1.948;2023-05-10T03:02:56;4.18;;;2.00;;
43363;SDS011;40636;52.424;-1.948;2023-05-10T03:05:22;4.80;;;2.08;;
43363;SDS011;40636;52.424;-1.948;2023-05-10T03:07:49;3.15;;;2.22;;
43363;SDS011;40636;52.424;-1.948;2023-05-10T03:10:17;4.40;;;2.45;;
43363;SDS011;40636;52.424;-1.948;2023-05-10T03:15:37;2.70;;;1.75;;
43363;SDS011;40636;52.424;-1.948;2023-05-10T03:18:31;7.45;;;3.05;;
43363;SDS011;40636;52.424;-1.948;2023-05-10T03:21:04;4.47;;;1.90;;
43363;SDS011;40636;52.424;-1.948;2023-05-10T03:23:43;6.45;;;2.20;;
43363;SDS011;40636;52.424;-1.948;2023-05-10T03:26:14;5.68;;;2.78;;
43363;SDS011;40636;52.424;-1.948;2023-05-10T03:28:47;6.75;;;2.35;;
43363;SDS011;40636;52.424;-1.948;2023-05-10T03:31:14;3.50;;;1.85;;
43363;SDS011;40636;52.424;-1.948;2023-05-10T03:33:48;2.20;;;1.70;;
43363;SDS011;40636;52.424;-1.948;2023-05-10T03:36:18;4.20;;;1.90;;
43363;SDS011;40636;52.424;-1.948;2023-05-10T03:38:45;5.22;;;2.10;;
43363;SDS011;40636;52.424;-1.948;2023-05-10T03:41:12;6.65;;;2.10;;
43363;SDS011;40636;52.424;-1.948;2023-05-10T03:43:39;4.38;;;1.85;;
43363;SDS011;40636;52.424;-1.948;2023-05-10T03:46:07;3.78;;;1.92;;
43363;SDS011;40636;52.424;-1.948;2023-05-10T03:48:33;3.92;;;2.17;;
43363;SDS011;40636;52.424;-1.948;2023-05-10T03:51:01;2.00;;;1.67;;
43363;SDS011;40636;52.424;-1.948;2023-05-10T03:53:28;5.03;;;2.03;;
43363;SDS011;40636;52.424;-1.948;2023-05-10T03:55:55;2.83;;;1.95;;
43363;SDS011;40636;52.424;-1.948;2023-05-10T03:58:21;2.92;;;1.52;;
43363;SDS011;40636;52.424;-1.948;2023-05-10T04:00:48;3.42;;;1.90;;
43363;SDS011;40636;52.424;-1.948;2023-05-10T04:03:15;1.85;;;1.52;;
43363;SDS011;40636;52.424;-1.948;2023-05-10T04:05:42;1.95;;;1.60;;
43363;SDS011;40636;52.424;-1.948;2023-05-10T04:08:08;7.43;;;2.50;;
43363;SDS011;40636;52.424;-1.948;2023-05-10T04:10:35;5.25;;;1.73;;
43363;SDS011;40636;52.424;-1.948;2023-05-10T04:13:02;4.05;;;1.83;;
43363;SDS011;40636;52.424;-1.948;2023-05-10T04:15:29;3.58;;;1.95;;
43363;SDS011;40636;52.424;-1.948;2023-05-10T04:17:55;3.05;;;1.73;;
43363;SDS011;40636;52.424;-1.948;2023-05-10T04:20:22;1.80;;;1.50;;
43363;SDS011;40636;52.424;-1.948;2023-05-10T04:22:49;4.78;;;1.65;;
43363;SDS011;40636;52.424;-1.948;2023-05-10T04:25:15;4.30;;;1.60;;
43363;SDS011;40636;52.424;-1.948;2023-05-10T04:27:42;3.20;;;1.80;;
43363;SDS011;40636;52.424;-1.948;2023-05-10T04:30:09;2.75;;;1.33;;
43363;SDS011;40636;52.424;-1.948;2023-05-10T04:32:36;2.88;;;1.75;;
43363;SDS011;40636;52.424;-1.948;2023-05-10T04:35:02;3.20;;;1.92;;
43363;SDS011;40636;52.424;-1.948;2023-05-10T04:37:30;2.75;;;1.80;;
43363;SDS011;40636;52.424;-1.948;2023-05-10T04:39:57;5.38;;;1.67;;
43363;SDS011;40636;52.424;-1.948;2023-05-10T04:42:26;7.10;;;2.40;;
43363;SDS011;40636;52.424;-1.948;2023-05-10T04:44:52;3.08;;;2.15;;
43363;SDS011;40636;52.424;-1.948;2023-05-10T04:47:19;3.83;;;2.40;;
43363;SDS011;40636;52.424;-1.948;2023-05-10T04:49:46;5.20;;;2.15;;
43363;SDS011;40636;52.424;-1.948;2023-05-10T04:52:12;4.70;;;1.90;;
43363;SDS011;40636;52.424;-1.948;2023-05-10T04:54:40;6.22;;;2.33;;
43363;SDS011;40636;52.424;-1.948;2023-05-10T04:57:07;3.38;;;2.10;;
43363;SDS011;40636;52.424;-1.948;2023-05-10T04:59:35;4.28;;;1.98;;
43363;SDS011;40636;52.424;-1.948;2023-05-10T05:02:02;4.65;;;1.75;;
43363;SDS011;40636;52.424;-1.948;2023-05-10T05:04:29;9.95;;;2.13;;
43363;SDS011;40636;52.424;-1.948;2023-05-10T05:06:57;5.38;;;1.85;;
43363;SDS011;40636;52.424;-1.948;2023-05-10T05:09:23;4.43;;;2.28;;
43363;SDS011;40636;52.424;-1.948;2023-05-10T05:11:50;3.65;;;1.77;;
43363;SDS011;40636;52.424;-1.948;2023-05-10T05:14:17;4.68;;;2.10;;
43363;SDS011;40636;52.424;-1.948;2023-05-10T05:16:43;4.43;;;2.28;;
43363;SDS011;40636;52.424;-1.948;2023-05-10T05:19:10;8.57;;;2.30;;
43363;SDS011;40636;52.424;-1.948;2023-05-10T05:21:37;6.32;;;2.03;;
43363;SDS011;40636;52.424;-1.948;2023-05-10T05:24:03;9.23;;;2.83;;
43363;SDS011;40636;52.424;-1.948;2023-05-10T05:26:30;6.38;;;2.47;;
43363;SDS011;40636;52.424;-1.948;2023-05-10T05:28:57;6.25;;;3.05;;
43363;SDS011;40636;52.424;-1.948;2023-05-10T05:31:24;3.63;;;2.15;;
43363;SDS011;40636;52.424;-1.948;2023-05-10T05:33:50;6.18;;;2.50;;
43363;SDS011;40636;52.424;-1.948;2023-05-10T05:36:17;3.65;;;2.42;;
43363;SDS011;40636;52.424;-1.948;2023-05-10T05:38:44;7.82;;;2.47;;
43363;SDS011;40636;52.424;-1.948;2023-05-10T05:41:11;3.45;;;2.25;;
43363;SDS011;40636;52.424;-1.948;2023-05-10T05:43:38;3.95;;;2.28;;
43363;SDS011;40636;52.424;-1.948;2023-05-10T05:46:05;4.63;;;2.50;;
43363;SDS011;40636;52.424;-1.948;2023-05-10T05:48:31;6.32;;;2.45;;
43363;SDS011;40636;52.424;-1.948;2023-05-10T05:50:58;7.38;;;2.28;;
43363;SDS011;40636;52.424;-1.948;2023-05-10T05:53:25;5.85;;;2.70;;
43363;SDS011;40636;52.424;-1.948;2023-05-10T05:58:19;6.38;;;3.10;;
43363;SDS011;40636;52.424;-1.948;2023-05-10T06:00:46;8.10;;;2.97;;
43363;SDS011;40636;52.424;-1.948;2023-05-10T06:03:13;10.30;;;3.17;;
43363;SDS011;40636;52.424;-1.948;2023-05-10T06:05:40;11.57;;;3.35;;
43363;SDS011;40636;52.424;-1.948;2023-05-10T06:08:07;7.00;;;4.25;;
43363;SDS011;40636;52.424;-1.948;2023-05-10T06:10:33;6.90;;;3.85;;
43363;SDS011;40636;52.424;-1.948;2023-05-10T06:13:00;10.35;;;3.70;;
43363;SDS011;40636;52.424;-1.948;2023-05-10T06:15:27;9.15;;;4.32;;
43363;SDS011;40636;52.424;-1.948;2023-05-10T06:17:54;15.65;;;3.38;;
43363;SDS011;40636;52.424;-1.948;2023-05-10T06:20:20;8.82;;;3.30;;
43363;SDS011;40636;52.424;-1.948;2023-05-10T06:22:47;4.78;;;2.22;;
43363;SDS011;40636;52.424;-1.948;2023-05-10T06:25:14;7.28;;;3.17;;
43363;SDS011;40636;52.424;-1.948;2023-05-10T06:27:41;5.45;;;2.53;;
43363;SDS011;40636;52.424;-1.948;2023-05-10T06:30:08;6.15;;;2.55;;
43363;SDS011;40636;52.424;-1.948;2023-05-10T06:32:38;7.20;;;2.63;;
43363;SDS011;40636;52.424;-1.948;2023-05-10T06:35:06;8.98;;;3.15;;
43363;SDS011;40636;52.424;-1.948;2023-05-10T06:37:33;7.00;;;2.50;;
43363;SDS011;40636;52.424;-1.948;2023-05-10T06:40:00;9.73;;;3.63;;
43363;SDS011;40636;52.424;-1.948;2023-05-10T06:42:28;12.75;;;2.58;;
43363;SDS011;40636;52.424;-1.948;2023-05-10T06:44:54;7.13;;;2.67;;
43363;SDS011;40636;52.424;-1.948;2023-05-10T06:47:21;8.00;;;3.30;;
43363;SDS011;40636;52.424;-1.948;2023-05-10T06:49:48;5.82;;;2.63;;
43363;SDS011;40636;52.424;-1.948;2023-05-10T06:52:14;8.95;;;3.80;;
43363;SDS011;40636;52.424;-1.948;2023-05-10T06:54:41;7.07;;;2.25;;
43363;SDS011;40636;52.424;-1.948;2023-05-10T06:57:08;8.80;;;3.08;;
43363;SDS011;40636;52.424;-1.948;2023-05-10T06:59:54;8.20;;;2.92;;
43363;SDS011;40636;52.424;-1.948;2023-05-10T07:02:22;8.00;;;2.80;;
43363;SDS011;40636;52.424;-1.948;2023-05-10T07:04:49;4.35;;;1.80;;
43363;SDS011;40636;52.424;-1.948;2023-05-10T07:07:18;7.50;;;1.88;;
43363;SDS011;40636;52.424;-1.948;2023-05-10T07:09:45;4.40;;;3.65;;
43363;SDS011;40636;52.424;-1.948;2023-05-10T07:12:12;8.23;;;2.00;;
43363;SDS011;40636;52.424;-1.948;2023-05-10T07:14:41;5.35;;;1.88;;
43363;SDS011;40636;52.424;-1.948;2023-05-10T07:17:08;5.47;;;3.00;;
43363;SDS011;40636;52.424;-1.948;2023-05-10T07:19:35;8.15;;;2.22;;
43363;SDS011;40636;52.424;-1.948;2023-05-10T07:22:02;7.05;;;2.88;;
43363;SDS011;40636;52.424;-1.948;2023-05-10T07:24:29;6.78;;;2.22;;
43363;SDS011;40636;52.424;-1.948;2023-05-10T07:26:57;4.00;;;2.25;;
43363;SDS011;40636;52.424;-1.948;2023-05-10T07:29:24;6.55;;;2.85;;
43363;SDS011;40636;52.424;-1.948;2023-05-10T07:31:51;4.65;;;2.00;;
43363;SDS011;40636;52.424;-1.948;2023-05-10T07:34:18;9.73;;;1.85;;
43363;SDS011;40636;52.424;-1.948;2023-05-10T07:36:45;8.05;;;2.80;;
43363;SDS011;40636;52.424;-1.948;2023-05-10T07:39:12;4.55;;;2.50;;
43363;SDS011;40636;52.424;-1.948;2023-05-10T07:41:51;6.60;;;3.53;;
43363;SDS011;40636;52.424;-1.948;2023-05-10T07:44:18;9.18;;;2.30;;
43363;SDS011;40636;52.424;-1.948;2023-05-10T07:46:46;5.43;;;1.98;;
43363;SDS011;40636;52.424;-1.948;2023-05-10T07:49:13;4.43;;;1.67;;
43363;SDS011;40636;52.424;-1.948;2023-05-10T07:51:40;4.43;;;3.00;;
43363;SDS011;40636;52.424;-1.948;2023-05-10T07:54:08;12.13;;;2.35;;
43363;SDS011;40636;52.424;-1.948;2023-05-10T07:56:35;7.10;;;2.40;;
43363;SDS011;40636;52.424;-1.948;2023-05-10T07:59:02;4.65;;;2.13;;
43363;SDS011;40636;52.424;-1.948;2023-05-10T08:01:31;12.13;;;2.78;;
43363;SDS011;40636;52.424;-1.948;2023-05-10T08:03:59;5.50;;;2.95;;
43363;SDS011;40636;52.424;-1.948;2023-05-10T08:06:26;4.32;;;2.45;;
43363;SDS011;40636;52.424;-1.948;2023-05-10T08:08:54;5.63;;;3.75;;
43363;SDS011;40636;52.424;-1.948;2023-05-10T08:11:22;7.95;;;2.33;;
43363;SDS011;40636;52.424;-1.948;2023-05-10T08:13:50;4.95;;;1.85;;
43363;SDS011;40636;52.424;-1.948;2023-05-10T08:16:17;6.55;;;2.42;;
43363;SDS011;40636;52.424;-1.948;2023-05-10T08:18:44;4.88;;;2.00;;
43363;SDS011;40636;52.424;-1.948;2023-05-10T08:21:13;6.55;;;1.90;;
43363;SDS011;40636;52.424;-1.948;2023-05-10T08:23:40;4.82;;;1.98;;
43363;SDS011;40636;52.424;-1.948;2023-05-10T08:26:07;9.48;;;2.00;;
43363;SDS011;40636;52.424;-1.948;2023-05-10T08:28:34;3.47;;;1.75;;
43363;SDS011;40636;52.424;-1.948;2023-05-10T08:31:01;4.47;;;1.90;;
43363;SDS011;40636;52.424;-1.948;2023-05-10T08:33:27;5.65;;;1.98;;
43363;SDS011;40636;52.424;-1.948;2023-05-10T08:35:54;7.78;;;2.22;;
43363;SDS011;40636;52.424;-1.948;2023-05-10T08:38:21;5.30;;;2.13;;
43363;SDS011;40636;52.424;-1.948;2023-05-10T08:40:48;5.68;;;1.65;;
43363;SDS011;40636;52.424;-1.948;2023-05-10T08:43:17;6.07;;;2.65;;
43363;SDS011;40636;52.424;-1.948;2023-05-10T08:45:44;2.53;;;1.75;;
43363;SDS011;40636;52.424;-1.948;2023-05-10T08:48:13;6.30;;;1.83;;
43363;SDS011;40636;52.424;-1.948;2023-05-10T08:50:41;3.95;;;2.03;;
43363;SDS011;40636;52.424;-1.948;2023-05-10T08:53:13;4.38;;;1.83;;
43363;SDS011;40636;52.424;-1.948;2023-05-10T08:55:42;6.22;;;1.73;;
43363;SDS011;40636;52.424;-1.948;2023-05-10T08:58:10;5.53;;;2.08;;
43363;SDS011;40636;52.424;-1.948;2023-05-10T09:00:37;3.13;;;1.30;;
43363;SDS011;40636;52.424;-1.948;2023-05-10T09:03:04;6.85;;;1.63;;
43363;SDS011;40636;52.424;-1.948;2023-05-10T09:05:32;4.55;;;1.80;;
43363;SDS011;40636;52.424;-1.948;2023-05-10T09:07:59;5.88;;;2.15;;
43363;SDS011;40636;52.424;-1.948;2023-05-10T09:10:29;4.35;;;1.55;;
43363;SDS011;40636;52.424;-1.948;2023-05-10T09:12:57;6.57;;;1.80;;
43363;SDS011;40636;52.424;-1.948;2023-05-10T09:15:25;5.05;;;1.58;;
43363;SDS011;40636;52.424;-1.948;2023-05-10T09:17:52;5.88;;;1.65;;
43363;SDS011;40636;52.424;-1.948;2023-05-10T09:20:20;7.78;;;2.10;;
43363;SDS011;40636;52.424;-1.948;2023-05-10T09:22:47;5.65;;;1.85;;
43363;SDS011;40636;52.424;-1.948;2023-05-10T09:25:15;2.28;;;1.40;;
43363;SDS011;40636;52.424;-1.948;2023-05-10T09:27:46;2.50;;;1.73;;
43363;SDS011;40636;52.424;-1.948;2023-05-10T09:30:17;2.58;;;1.48;;
43363;SDS011;40636;52.424;-1.948;2023-05-10T09:32:55;4.30;;;1.33;;
43363;SDS011;40636;52.424;-1.948;2023-05-10T09:35:26;3.40;;;1.42;;
43363;SDS011;40636;52.424;-1.948;2023-05-10T09:37:56;4.47;;;1.30;;
43363;SDS011;40636;52.424;-1.948;2023-05-10T09:40:28;6.53;;;1.38;;
43363;SDS011;40636;52.424;-1.948;2023-05-10T09:43:03;1.67;;;0.80;;
43363;SDS011;40636;52.424;-1.948;2023-05-10T09:48:04;4.43;;;1.40;;
43363;SDS011;40636;52.424;-1.948;2023-05-10T09:50:32;5.30;;;1.13;;
43363;SDS011;40636;52.424;-1.948;2023-05-10T09:53:01;4.65;;;1.75;;
43363;SDS011;40636;52.424;-1.948;2023-05-10T09:58:02;4.45;;;1.30;;
43363;SDS011;40636;52.424;-1.948;2023-05-10T10:00:34;4.15;;;1.13;;
43363;SDS011;40636;52.424;-1.948;2023-05-10T10:03:06;4.95;;;1.30;;
43363;SDS011;40636;52.424;-1.948;2023-05-10T10:05:39;3.55;;;1.33;;
43363;SDS011;40636;52.424;-1.948;2023-05-10T10:08:06;9.45;;;1.17;;
43363;SDS011;40636;52.424;-1.948;2023-05-10T10:10:33;2.33;;;1.42;;
43363;SDS011;40636;52.424;-1.948;2023-05-10T10:13:01;5.38;;;1.20;;
43363;SDS011;40636;52.424;-1.948;2023-05-10T10:15:28;7.22;;;1.50;;
43363;SDS011;40636;52.424;-1.948;2023-05-10T10:17:55;1.67;;;1.20;;
43363;SDS011;40636;52.424;-1.948;2023-05-10T10:20:22;5.20;;;1.75;;
43363;SDS011;40636;52.424;-1.948;2023-05-10T10:22:50;3.67;;;1.48;;
43363;SDS011;40636;52.424;-1.948;2023-05-10T10:25:18;4.03;;;1.15;;
43363;SDS011;40636;52.424;-1.948;2023-05-10T10:30:42;1.70;;;1.02;;
43363;SDS011;40636;52.424;-1.948;2023-05-10T10:36:00;3.38;;;1.45;;
43363;SDS011;40636;52.424;-1.948;2023-05-10T10:39:07;2.92;;;1.30;;
43363;SDS011;40636;52.424;-1.948;2023-05-10T10:41:33;3.20;;;1.00;;
43363;SDS011;40636;52.424;-1.948;2023-05-10T10:46:59;2.95;;;1.13;;
43363;SDS011;40636;52.424;-1.948;2023-05-10T10:49:42;3.58;;;0.95;;
43363;SDS011;40636;52.424;-1.948;2023-05-10T10:54:47;1.40;;;0.93;;
43363;SDS011;40636;52.424;-1.948;2023-05-10T10:57:17;3.13;;;1.50;;
43363;SDS011;40636;52.424;-1.948;2023-05-10T10:59:45;4.68;;;1.67;;
43363;SDS011;40636;52.424;-1.948;2023-05-10T11:05:34;4.57;;;1.45;;
43363;SDS011;40636;52.424;-1.948;2023-05-10T11:08:18;4.20;;;1.20;;
43363;SDS011;40636;52.424;-1.948;2023-05-10T11:13:30;2.95;;;1.20;;
43363;SDS011;40636;52.424;-1.948;2023-05-10T11:15:59;2.35;;;1.10;;
43363;SDS011;40636;52.424;-1.948;2023-05-10T11:19:02;3.35;;;1.33;;
43363;SDS011;40636;52.424;-1.948;2023-05-10T11:21:31;8.32;;;1.48;;
43363;SDS011;40636;52.424;-1.948;2023-05-10T11:23:59;4.07;;;1.27;;
43363;SDS011;40636;52.424;-1.948;2023-05-10T11:26:30;2.63;;;1.17;;
43363;SDS011;40636;52.424;-1.948;2023-05-10T11:29:00;1.15;;;0.75;;
43363;SDS011;40636;52.424;-1.948;2023-05-10T11:31:28;7.78;;;2.15;;
43363;SDS011;40636;52.424;-1.948;2023-05-10T11:33:56;1.02;;;0.90;;
43363;SDS011;40636;52.424;-1.948;2023-05-10T11:36:27;4.55;;;1.05;;
43363;SDS011;40636;52.424;-1.948;2023-05-10T11:38:55;1.35;;;0.70;;
43363;SDS011;40636;52.424;-1.948;2023-05-10T11:41:24;1.33;;;1.20;;
43363;SDS011;40636;52.424;-1.948;2023-05-10T11:43:52;1.45;;;0.90;;
43363;SDS011;40636;52.424;-1.948;2023-05-10T11:46:20;7.18;;;1.10;;
43363;SDS011;40636;52.424;-1.948;2023-05-10T11:48:49;5.05;;;1.40;;
43363;SDS011;40636;52.424;-1.948;2023-05-10T11:51:21;1.73;;;1.00;;
43363;SDS011;40636;52.424;-1.948;2023-05-10T11:53:50;1.98;;;0.70;;
43363;SDS011;40636;52.424;-1.948;2023-05-10T11:56:19;1.17;;;0.73;;
43363;SDS011;40636;52.424;-1.948;2023-05-10T11:58:54;2.97;;;1.20;;
43363;SDS011;40636;52.424;-1.948;2023-05-10T12:01:26;0.93;;;0.90;;
43363;SDS011;40636;52.424;-1.948;2023-05-10T12:03:55;0.95;;;0.60;;
43363;SDS011;40636;52.424;-1.948;2023-05-10T12:06:31;1.35;;;0.60;;
43363;SDS011;40636;52.424;-1.948;2023-05-10T12:09:05;0.85;;;0.60;;
43363;SDS011;40636;52.424;-1.948;2023-05-10T12:11:36;5.65;;;1.00;;
43363;SDS011;40636;52.424;-1.948;2023-05-10T12:14:08;2.17;;;0.70;;
43363;SDS011;40636;52.424;-1.948;2023-05-10T12:16:35;2.95;;;0.60;;
43363;SDS011;40636;52.424;-1.948;2023-05-10T12:19:02;1.48;;;0.80;;
43363;SDS011;40636;52.424;-1.948;2023-05-10T12:21:29;0.63;;;0.57;;
43363;SDS011;40636;52.424;-1.948;2023-05-10T12:24:01;1.15;;;0.73;;
43363;SDS011;40636;52.424;-1.948;2023-05-10T12:26:29;4.63;;;1.60;;
43363;SDS011;40636;52.424;-1.948;2023-05-10T12:29:12;2.10;;;0.90;;
43363;SDS011;40636;52.424;-1.948;2023-05-10T12:31:56;1.33;;;1.05;;
43363;SDS011;40636;52.424;-1.948;2023-05-10T12:34:34;2.15;;;0.85;;
43363;SDS011;40636;52.424;-1.948;2023-05-10T12:37:02;1.67;;;0.77;;
43363;SDS011;40636;52.424;-1.948;2023-05-10T12:39:42;1.65;;;0.95;;
43363;SDS011;40636;52.424;-1.948;2023-05-10T12:42:11;1.10;;;0.63;;
43363;SDS011;40636;52.424;-1.948;2023-05-10T12:44:38;0.30;;;0.30;;
43363;SDS011;40636;52.424;-1.948;2023-05-10T12:47:05;0.55;;;0.50;;
43363;SDS011;40636;52.424;-1.948;2023-05-10T12:49:32;3.00;;;1.00;;
43363;SDS011;40636;52.424;-1.948;2023-05-10T12:52:00;0.50;;;0.47;;
43363;SDS011;40636;52.424;-1.948;2023-05-10T12:54:26;1.40;;;0.60;;
43363;SDS011;40636;52.424;-1.948;2023-05-10T12:56:54;2.95;;;0.38;;
43363;SDS011;40636;52.424;-1.948;2023-05-10T12:59:21;0.70;;;0.50;;
43363;SDS011;40636;52.424;-1.948;2023-05-10T13:01:47;0.55;;;0.52;;
43363;SDS011;40636;52.424;-1.948;2023-05-10T13:04:14;1.13;;;0.70;;
43363;SDS011;40636;52.424;-1.948;2023-05-10T13:06:41;2.63;;;0.68;;
43363;SDS011;40636;52.424;-1.948;2023-05-10T13:09:07;1.42;;;0.77;;
43363;SDS011;40636;52.424;-1.948;2023-05-10T13:11:34;0.20;;;0.20;;
43363;SDS011;40636;52.424;-1.948;2023-05-10T13:14:01;1.42;;;0.60;;
43363;SDS011;40636;52.424;-1.948;2023-05-10T13:16:29;2.50;;;0.57;;
43363;SDS011;40636;52.424;-1.948;2023-05-10T13:18:56;1.42;;;1.23;;
43363;SDS011;40636;52.424;-1.948;2023-05-10T13:21:24;0.40;;;0.40;;
43363;SDS011;40636;52.424;-1.948;2023-05-10T13:23:51;0.60;;;0.45;;
43363;SDS011;40636;52.424;-1.948;2023-05-10T13:26:17;1.00;;;0.50;;
43363;SDS011;40636;52.424;-1.948;2023-05-10T13:28:45;0.57;;;0.35;;
43363;SDS011;40636;52.424;-1.948;2023-05-10T13:31:12;0.65;;;0.25;;
43363;SDS011;40636;52.424;-1.948;2023-05-10T13:33:39;0.22;;;0.22;;
43363;SDS011;40636;52.424;-1.948;2023-05-10T13:36:06;0.30;;;0.30;;
43363;SDS011;40636;52.424;-1.948;2023-05-10T13:38:32;0.82;;;0.50;;
43363;SDS011;40636;52.424;-1.948;2023-05-10T13:40:59;0.20;;;0.20;;
43363;SDS011;40636;52.424;-1.948;2023-05-10T13:43:26;0.55;;;0.40;;
43363;SDS011;40636;52.424;-1.948;2023-05-10T13:45:53;1.63;;;0.40;;
43363;SDS011;40636;52.424;-1.948;2023-05-10T13:48:19;0.30;;;0.30;;
43363;SDS011;40636;52.424;-1.948;2023-05-10T13:50:46;1.98;;;0.40;;
43363;SDS011;40636;52.424;-1.948;2023-05-10T13:53:13;0.75;;;0.47;;
43363;SDS011;40636;52.424;-1.948;2023-05-10T13:55:40;0.50;;;0.50;;
43363;SDS011;40636;52.424;-1.948;2023-05-10T13:58:07;0.43;;;0.40;;
43363;SDS011;40636;52.424;-1.948;2023-05-10T14:00:34;0.60;;;0.50;;
43363;SDS011;40636;52.424;-1.948;2023-05-10T14:03:00;2.78;;;0.40;;
43363;SDS011;40636;52.424;-1.948;2023-05-10T14:05:27;1.33;;;0.40;;
43363;SDS011;40636;52.424;-1.948;2023-05-10T14:07:55;0.85;;;0.50;;
43363;SDS011;40636;52.424;-1.948;2023-05-10T14:10:23;0.70;;;0.50;;
43363;SDS011;40636;52.424;-1.948;2023-05-10T14:12:50;0.60;;;0.60;;
43363;SDS011;40636;52.424;-1.948;2023-05-10T14:15:17;0.65;;;0.40;;
43363;SDS011;40636;52.424;-1.948;2023-05-10T14:17:45;1.80;;;0.63;;
43363;SDS011;40636;52.424;-1.948;2023-05-10T14:20:14;1.55;;;0.98;;
43363;SDS011;40636;52.424;-1.948;2023-05-10T14:22:41;3.50;;;0.50;;
43363;SDS011;40636;52.424;-1.948;2023-05-10T14:25:08;0.40;;;0.40;;
43363;SDS011;40636;52.424;-1.948;2023-05-10T14:27:35;0.55;;;0.50;;
43363;SDS011;40636;52.424;-1.948;2023-05-10T14:30:02;3.03;;;0.75;;
43363;SDS011;40636;52.424;-1.948;2023-05-10T14:32:29;1.65;;;0.60;;
43363;SDS011;40636;52.424;-1.948;2023-05-10T14:34:55;2.38;;;0.60;;
43363;SDS011;40636;52.424;-1.948;2023-05-10T14:37:22;0.85;;;0.40;;
43363;SDS011;40636;52.424;-1.948;2023-05-10T14:39:49;1.38;;;0.55;;
43363;SDS011;40636;52.424;-1.948;2023-05-10T14:42:15;0.93;;;0.50;;
43363;SDS011;40636;52.424;-1.948;2023-05-10T14:44:42;1.35;;;0.63;;
43363;SDS011;40636;52.424;-1.948;2023-05-10T14:47:09;0.70;;;0.55;;
43363;SDS011;40636;52.424;-1.948;2023-05-10T14:49:37;0.50;;;0.50;;
43363;SDS011;40636;52.424;-1.948;2023-05-10T14:52:05;2.10;;;0.70;;
43363;SDS011;40636;52.424;-1.948;2023-05-10T14:54:32;1.17;;;0.70;;
43363;SDS011;40636;52.424;-1.948;2023-05-10T14:57:02;0.60;;;0.60;;
43363;SDS011;40636;52.424;-1.948;2023-05-10T14:59:28;2.55;;;0.82;;
43363;SDS011;40636;52.424;-1.948;2023-05-10T15:01:56;1.83;;;0.68;;
43363;SDS011;40636;52.424;-1.948;2023-05-10T15:04:23;1.13;;;0.70;;
43363;SDS011;40636;52.424;-1.948;2023-05-10T15:06:53;2.97;;;0.82;;
43363;SDS011;40636;52.424;-1.948;2023-05-10T15:09:25;0.95;;;0.75;;
43363;SDS011;40636;52.424;-1.948;2023-05-10T15:11:54;0.60;;;0.60;;
43363;SDS011;40636;52.424;-1.948;2023-05-10T15:14:22;2.08;;;0.82;;
43363;SDS011;40636;52.424;-1.948;2023-05-10T15:16:49;1.08;;;0.88;;
43363;SDS011;40636;52.424;-1.948;2023-05-10T15:19:16;1.65;;;0.57;;
43363;SDS011;40636;52.424;-1.948;2023-05-10T15:21:44;2.75;;;0.82;;
43363;SDS011;40636;52.424;-1.948;2023-05-10T15:24:12;1.27;;;0.90;;